KIKK

Greater Kankakee Airport

Kankakee, Illinois, USA
METAR KIKK 180835Z AUTO 22007KT 10SM OVC016 06/04 A2999 RMK AO2 T00560042
Observed Flight Rules
Dec-18 @ 08:35 UTC (21 minutes ago) Marginal Visual Flight Rules
Wind Visibility Clouds
220° at 7 knots 10 miles
  • Overcast at 1,600' AGL
Temperatures Readings
Current 6°C / 43°F
Dewpoint 4°C / 39°F
Humidity 87%
Altimeter 29.99" Hg
Pressure 1016 hPa
Elevation 192
METAR KIKK 180835Z AUTO 22007KT 10SM OVC016 06/04 A2999 RMK AO2 T00560042
Observed Flight Rules
Dec-18 @ 08:35 UTC
(21 minutes ago)
MVFR
Wind Visibility
220° at 7 knots 10 miles
Clouds
  • Overcast at 1,600' AGL
Temperature Dewpoint
6°C / 43°F 4°C / 39°F
Humidity Altimeter Pressure
87% 29.99" Hg 1016 hPa